Continental Highway — H9LY — position and weather

sailwx.info

Track history (hours):
 
Tides and Currents Weather Stations Pressure Air Temp Water Temp Dewpoint Dewpoint Depression Visibility Wind Speed Wind Dir Waves Ship Positions

Continental Highway

Last reported at 2015-Mar-11 00:27 UTC. Time now 2015-Mar-28 14:25 UTC.
Position N 40°27' W 073°49'.
Warning: this ship's position is 17 days out of date.

Length 199.9 m; beam 32.2 m.

Type: Cargo ship. MMSI: 351223000.

Date/timePositionNaut miles runAvg speedWind from/ knotsBaromVisibWave heightAir tempDewpointWater temp
2015-Mar-11 00:27N 40°27' W 073°49'910.0
2015-Mar-10 23:33N 40°31' W 073°60'9 9.3
2015-Mar-10 22:33N 40°39' W 074°06'3 2.9
2015-Mar-10 21:33N 40°41' W 074°08'0 0.0
2015-Mar-10 20:29N 40°41' W 074°08'0 0.0
2015-Mar-10 19:23N 40°41' W 074°08'0 0.0
2015-Mar-10 18:28N 40°41' W 074°08'0 0.0
2015-Mar-10 17:29N 40°41' W 074°08'0 0.0
2015-Mar-10 16:29N 40°41' W 074°08'0 0.0
2015-Mar-10 15:28N 40°41' W 074°08'0 0.0
2015-Mar-10 14:29N 40°41' W 074°08'0 0.0
2015-Mar-10 13:28N 40°41' W 074°08'0 0.0
2015-Mar-10 12:32N 40°41' W 074°08'0 0.0
2015-Mar-10 11:28N 40°41' W 074°08'0 0.0
2015-Mar-10 10:28N 40°41' W 074°08'0 0.0
2015-Mar-10 09:22N 40°41' W 074°08'0 0.0
2015-Mar-10 08:29N 40°41' W 074°08'0 0.0
2015-Mar-10 07:29N 40°41' W 074°08'0 0.0
2015-Mar-10 06:23N 40°41' W 074°08'0 0.0
2015-Mar-10 05:28N 40°41' W 074°08'0 0.0
2015-Mar-10 04:22N 40°41' W 074°08'0 0.0
2015-Mar-10 03:29N 40°41' W 074°08'2 1.7
2015-Mar-10 02:33N 40°40' W 074°08'5 4.7
2015-Mar-10 01:33N 40°38' W 074°03'1110.7
2015-Mar-10 00:33N 40°29' W 073°54'21 8.4
2015-Mar-09 22:05N 40°10' W 073°44'813.4
2015-Mar-09 21:28N 40°02' W 073°43'1617.1
2015-Mar-09 20:32N 39°46' W 073°40'1616.8
2015-Mar-09 19:33N 39°30' W 073°46'1816.7
2015-Mar-09 18:30N 39°13' W 073°51'23516.8
2015-Mar-09 04:31N 35°25' W 075°08'1718.1
2015-Mar-09 03:33N 35°09' W 075°14'3919.6
2015-Mar-09 01:33N 34°38' W 075°44'1818.3
2015-Mar-09 00:33N 34°26' W 075°60'1818.2
2015-Mar-08 23:33N 34°13' W 076°16'1817.4
2015-Mar-08 22:33N 34°01' W 076°31'1917.0
2015-Mar-08 21:27N 33°48' W 076°47'21616.5
2015-Mar-08 08:21N 31°18' W 079°51'4515.9
2015-Mar-08 05:31N 30°46' W 080°29'236 5.1
2015-Mar-06 07:12N 26°56' W 079°28'5 7.5
2015-Mar-06 06:33N 26°59' W 079°23'7 6.7
2015-Mar-06 05:33N 27°05' W 079°26'1919.1
2015-Mar-06 04:34N 26°46' W 079°27'1919.1
2015-Mar-06 03:33N 26°27' W 079°28'1716.6
2015-Mar-06 02:33N 26°13' W 079°17'1110.8
2015-Mar-06 01:33N 26°04' W 079°23'1817.6
2015-Mar-06 00:33N 25°48' W 079°31'8516.2
2015-Mar-05 19:19N 24°28' W 080°03'  
Track history (hours):
 
Tides and Currents Weather Stations Pressure Air Temp Water Temp Dewpoint Dewpoint Depression Visibility Wind Speed Wind Dir Waves Ship Positions

Continental Highway

Last reported at 2015-Mar-11 00:27 UTC. Time now 2015-Mar-28 14:25 UTC.
Position N 40°27' W 073°49'.
Warning: this ship's position is 17 days out of date.

Length 199.9 m; beam 32.2 m.

Type: Cargo ship. MMSI: 351223000.

Date/timePositionNaut miles runAvg speedWind from/ knotsBaromVisibWave heightAir tempDewpointWater temp
2015-Mar-11 00:27N 40°27' W 073°49'910.0
2015-Mar-10 23:33N 40°31' W 073°60'9 9.3
2015-Mar-10 22:33N 40°39' W 074°06'3 2.9
2015-Mar-10 21:33N 40°41' W 074°08'0 0.0
2015-Mar-10 20:29N 40°41' W 074°08'0 0.0
2015-Mar-10 19:23N 40°41' W 074°08'0 0.0
2015-Mar-10 18:28N 40°41' W 074°08'0 0.0
2015-Mar-10 17:29N 40°41' W 074°08'0 0.0
2015-Mar-10 16:29N 40°41' W 074°08'0 0.0
2015-Mar-10 15:28N 40°41' W 074°08'0 0.0
2015-Mar-10 14:29N 40°41' W 074°08'0 0.0
2015-Mar-10 13:28N 40°41' W 074°08'0 0.0
2015-Mar-10 12:32N 40°41' W 074°08'0 0.0
2015-Mar-10 11:28N 40°41' W 074°08'0 0.0
2015-Mar-10 10:28N 40°41' W 074°08'0 0.0
2015-Mar-10 09:22N 40°41' W 074°08'0 0.0
2015-Mar-10 08:29N 40°41' W 074°08'0 0.0
2015-Mar-10 07:29N 40°41' W 074°08'0 0.0
2015-Mar-10 06:23N 40°41' W 074°08'0 0.0
2015-Mar-10 05:28N 40°41' W 074°08'0 0.0
2015-Mar-10 04:22N 40°41' W 074°08'0 0.0
2015-Mar-10 03:29N 40°41' W 074°08'2 1.7
2015-Mar-10 02:33N 40°40' W 074°08'5 4.7
2015-Mar-10 01:33N 40°38' W 074°03'1110.7
2015-Mar-10 00:33N 40°29' W 073°54'21 8.4
2015-Mar-09 22:05N 40°10' W 073°44'813.4
2015-Mar-09 21:28N 40°02' W 073°43'1617.1
2015-Mar-09 20:32N 39°46' W 073°40'1616.8
2015-Mar-09 19:33N 39°30' W 073°46'1816.7
2015-Mar-09 18:30N 39°13' W 073°51'23516.8
2015-Mar-09 04:31N 35°25' W 075°08'1718.1
2015-Mar-09 03:33N 35°09' W 075°14'3919.6
2015-Mar-09 01:33N 34°38' W 075°44'1818.3
2015-Mar-09 00:33N 34°26' W 075°60'1818.2
2015-Mar-08 23:33N 34°13' W 076°16'1817.4
2015-Mar-08 22:33N 34°01' W 076°31'1917.0
2015-Mar-08 21:27N 33°48' W 076°47'21616.5
2015-Mar-08 08:21N 31°18' W 079°51'4515.9
2015-Mar-08 05:31N 30°46' W 080°29'236 5.1
2015-Mar-06 07:12N 26°56' W 079°28'5 7.5
2015-Mar-06 06:33N 26°59' W 079°23'7 6.7
2015-Mar-06 05:33N 27°05' W 079°26'1919.1
2015-Mar-06 04:34N 26°46' W 079°27'1919.1
2015-Mar-06 03:33N 26°27' W 079°28'1716.6
2015-Mar-06 02:33N 26°13' W 079°17'1110.8
2015-Mar-06 01:33N 26°04' W 079°23'1817.6
2015-Mar-06 00:33N 25°48' W 079°31'8516.2
2015-Mar-05 19:19N 24°28' W 080°03'  

Dump ship's entire track history